createdAt,value
2023-01-08T00:02:19.766Z,36.20
2023-01-08T00:12:44.302Z,37.90
2023-01-08T00:23:11.334Z,36.10
2023-01-08T00:33:36.107Z,37.50
2023-01-08T00:44:00.459Z,34.50
2023-01-08T00:54:24.703Z,32.70
2023-01-08T01:04:48.870Z,30.10
2023-01-08T01:15:15.655Z,32.30
2023-01-08T01:25:39.880Z,32.20
2023-01-08T01:36:05.247Z,26.20
2023-01-08T01:46:37.956Z,27.70
2023-01-08T01:57:02.707Z,26.30
2023-01-08T02:07:36.547Z,30.20
2023-01-08T02:18:07.910Z,29.40
2023-01-08T02:28:36.769Z,27.10
2023-01-08T02:39:28.809Z,26.80
2023-01-08T02:50:00.980Z,27.10
2023-01-08T03:00:26.471Z,27.00
2023-01-08T03:11:02.948Z,24.60
2023-01-08T03:21:28.202Z,25.40
2023-01-08T03:31:57.005Z,24.10
2023-01-08T03:42:21.646Z,25.30
2023-01-08T03:52:45.962Z,26.70
2023-01-08T04:03:10.221Z,29.00
2023-01-08T04:13:34.378Z,25.90
2023-01-08T04:23:58.589Z,21.80
2023-01-08T04:34:22.785Z,25.20
2023-01-08T04:45:33.409Z,25.40
2023-01-08T04:56:06.098Z,22.30
2023-01-08T05:06:34.750Z,25.40
2023-01-08T05:27:29.119Z,26.90
2023-01-08T05:37:56.717Z,22.80
2023-01-08T05:48:24.214Z,25.80
2023-01-08T05:58:54.685Z,23.00
2023-01-08T06:09:22.596Z,24.30
2023-01-08T06:19:50.216Z,26.20
2023-01-08T06:30:18.041Z,22.80
2023-01-08T06:40:45.665Z,28.10
2023-01-08T06:51:13.336Z,28.40
2023-01-08T07:01:41.005Z,28.10
2023-01-08T07:12:12.957Z,27.80
2023-01-08T07:22:40.700Z,24.90
2023-01-08T07:33:08.971Z,23.00
2023-01-08T07:43:37.211Z,23.30
2023-01-08T07:54:05.689Z,20.30
2023-01-08T08:04:33.201Z,26.10
2023-01-08T08:15:00.816Z,24.50
2023-01-08T08:25:28.365Z,24.60
2023-01-08T08:35:55.855Z,23.30
2023-01-08T08:46:25.464Z,23.50
2023-01-08T08:56:53.062Z,26.60
2023-01-08T09:07:20.679Z,30.30
2023-01-08T09:17:53.312Z,24.80
2023-01-08T09:28:20.836Z,23.80
2023-01-08T09:38:48.640Z,29.10
2023-01-08T09:49:22.662Z,36.60
2023-01-08T09:59:51.611Z,25.40
2023-01-08T10:10:23.071Z,22.70
2023-01-08T10:20:51.238Z,23.50
2023-01-08T10:31:19.777Z,22.30
2023-01-08T10:41:48.900Z,19.90
2023-01-08T10:52:28.959Z,19.90
2023-01-08T11:02:57.560Z,25.00
2023-01-08T11:24:06.407Z,25.70
2023-01-08T11:34:40.637Z,23.70
2023-01-08T11:45:21.141Z,23.50
2023-01-08T11:56:03.266Z,23.20
2023-01-08T12:06:41.081Z,21.40
2023-01-08T12:17:30.955Z,21.50
2023-01-08T12:28:19.436Z,21.20
2023-01-08T12:38:58.979Z,16.10
2023-01-08T12:49:34.115Z,16.10
2023-01-08T13:00:07.543Z,17.50
2023-01-08T13:10:40.756Z,16.70
2023-01-08T13:21:12.430Z,15.80
2023-01-08T13:31:43.344Z,12.60
2023-01-08T13:42:28.532Z,13.90
2023-01-08T13:53:00.863Z,18.40
2023-01-08T14:03:30.444Z,14.10
2023-01-08T14:13:58.705Z,13.60
2023-01-08T14:24:28.849Z,16.60
2023-01-08T14:45:25.721Z,14.20
2023-01-08T14:55:55.984Z,12.20
2023-01-08T15:06:30.498Z,10.70
2023-01-08T15:17:01.043Z,18.40
2023-01-08T15:27:31.375Z,12.40
2023-01-08T15:37:58.858Z,13.20
2023-01-08T15:48:26.387Z,12.00
2023-01-08T15:58:54.221Z,11.20
2023-01-08T16:09:21.724Z,12.80
2023-01-08T16:19:49.208Z,12.30
2023-01-08T16:30:17.640Z,13.70
2023-01-08T16:40:45.158Z,12.90
2023-01-08T16:51:13.779Z,12.50
2023-01-08T17:01:41.367Z,32.80
2023-01-08T17:12:09.726Z,21.20
2023-01-08T17:22:37.806Z,22.30
2023-01-08T17:33:05.577Z,13.50
2023-01-08T17:43:36.731Z,15.90
2023-01-08T17:54:04.441Z,15.50
2023-01-08T18:04:33.197Z,20.80
2023-01-08T18:15:00.824Z,21.70
2023-01-08T18:25:28.428Z,22.70
2023-01-08T18:35:55.975Z,26.20
2023-01-08T18:46:23.499Z,32.20
2023-01-08T18:56:51.634Z,26.40
2023-01-08T19:07:20.170Z,21.30
2023-01-08T19:17:47.809Z,20.70
2023-01-08T19:28:15.417Z,19.00
2023-01-08T19:38:43.710Z,18.10
2023-01-08T19:49:12.053Z,18.60
2023-01-08T19:59:39.704Z,18.00
2023-01-08T20:10:08.782Z,25.20
2023-01-08T20:20:36.341Z,23.50
2023-01-08T20:31:10.240Z,26.80
2023-01-08T20:41:38.145Z,23.10
2023-01-08T20:52:06.426Z,24.30
2023-01-08T21:02:34.033Z,34.60
2023-01-08T21:13:01.667Z,29.40
2023-01-08T21:23:29.836Z,34.20
2023-01-08T21:33:59.431Z,39.60
2023-01-08T21:44:45.607Z,43.20
2023-01-08T21:55:16.954Z,44.40
2023-01-08T22:05:44.591Z,40.50
2023-01-08T22:16:12.871Z,36.30
2023-01-08T22:26:40.671Z,34.40
2023-01-08T22:37:08.253Z,33.90
2023-01-08T22:47:35.882Z,35.40
2023-01-08T22:58:03.429Z,47.60
2023-01-08T23:08:31.068Z,38.00
2023-01-08T23:18:59.070Z,39.70
2023-01-08T23:29:29.711Z,30.30
2023-01-08T23:39:57.232Z,30.10
2023-01-08T23:50:24.691Z,29.80
